Time;durP1;ratioP1;P1;durP2;ratioP2;P2;SDS_P1;SDS_P2;PMS_P1;PMS_P2;Temp;Humidity;BMP_temperature;BMP_pressure;BME280_temperature;BME280_humidity;BME280_pressure;Samples;Min_cycle;Max_cycle;Signal;HPM_P1;HPM_P2
2022/10/03 00:00:37;;;;;;;14.37;3.20;;;9.20;99.90;;;;;;5038450;28;20149;-76
2022/10/03 00:03:29;;;;;;;22.20;3.65;;;9.20;99.90;;;;;;5063151;28;20058;-80
2022/10/03 00:05:55;;;;;;;22.38;3.50;;;9.20;99.90;;;;;;5056771;28;20044;-76
2022/10/03 00:08:50;;;;;;;20.35;3.15;;;9.20;99.90;;;;;;5037789;28;20405;-77
2022/10/03 00:11:31;;;;;;;23.52;4.00;;;9.30;99.90;;;;;;5043831;28;20039;-77
2022/10/03 00:14:05;;;;;;;18.60;2.90;;;9.10;99.90;;;;;;5069987;28;20575;-80
2022/10/03 00:16:37;;;;;;;21.45;3.78;;;9.10;99.90;;;;;;5064142;28;20070;-77
2022/10/03 00:19:06;;;;;;;16.55;2.88;;;9.10;99.90;;;;;;5063923;28;20689;-77
2022/10/03 00:22:09;;;;;;;20.08;4.30;;;9.00;99.90;;;;;;5068202;28;20132;-77
2022/10/03 00:24:52;;;;;;;20.77;4.07;;;9.00;99.90;;;;;;5063717;28;20043;-77
2022/10/03 00:27:46;;;;;;;23.08;3.63;;;9.00;99.90;;;;;;5067494;28;20052;-77
2022/10/03 00:30:15;;;;;;;25.52;3.45;;;9.00;99.90;;;;;;5067143;28;20101;-77
2022/10/03 00:33:13;;;;;;;22.25;3.20;;;9.10;99.90;;;;;;5054425;28;20481;-76
2022/10/03 00:36:02;;;;;;;25.33;3.58;;;9.00;99.90;;;;;;5052829;28;20135;-77
2022/10/03 00:38:46;;;;;;;16.40;2.90;;;9.00;99.90;;;;;;5061641;28;20052;-77
2022/10/03 00:41:57;;;;;;;19.52;3.17;;;9.00;99.90;;;;;;5050072;28;20035;-77
2022/10/03 00:45:06;;;;;;;27.13;3.95;;;9.00;99.90;;;;;;5045077;28;20037;-77
2022/10/03 00:47:50;;;;;;;22.75;3.47;;;9.00;99.90;;;;;;5046240;28;20075;-76
2022/10/03 00:50:41;;;;;;;20.02;3.33;;;8.90;99.90;;;;;;5050603;28;20044;-77
2022/10/03 00:53:32;;;;;;;21.80;2.88;;;8.90;99.90;;;;;;5066661;28;20086;-77
2022/10/03 00:56:14;;;;;;;18.88;3.17;;;8.90;99.90;;;;;;5056665;28;20064;-77
2022/10/03 00:58:58;;;;;;;22.38;3.40;;;8.90;99.90;;;;;;5060312;28;20197;-77
2022/10/03 01:01:26;;;;;;;17.55;3.15;;;9.00;99.90;;;;;;5060428;28;20052;-77
2022/10/03 01:04:04;;;;;;;22.98;3.45;;;9.00;99.90;;;;;;5068241;28;20095;-77
2022/10/03 01:06:37;;;;;;;24.02;3.15;;;9.10;99.90;;;;;;5068456;28;20047;-77
2022/10/03 01:09:40;;;;;;;22.40;3.35;;;9.10;99.90;;;;;;5052978;28;20078;-79
2022/10/03 01:12:31;;;;;;;19.55;2.95;;;9.00;99.90;;;;;;5042135;28;20378;-78
2022/10/03 01:15:16;;;;;;;14.00;3.20;;;9.00;99.90;;;;;;5044626;28;20044;-77
2022/10/03 01:18:09;;;;;;;14.57;3.05;;;9.00;99.90;;;;;;5054171;28;20047;-78
2022/10/03 01:20:45;;;;;;;26.75;2.78;;;9.00;99.90;;;;;;5063567;28;20055;-77
2022/10/03 01:23:30;;;;;;;28.23;4.15;;;9.00;99.90;;;;;;5049336;28;20060;-77
2022/10/03 01:26:18;;;;;;;22.13;3.75;;;9.10;99.90;;;;;;5048153;28;20130;-77
2022/10/03 01:32:03;;;;;;;19.13;2.85;;;9.30;99.90;;;;;;5075282;28;20110;-76
2022/10/03 01:35:07;;;;;;;23.25;3.13;;;9.30;99.90;;;;;;5038897;28;20510;-76
2022/10/03 01:37:58;;;;;;;16.83;2.70;;;9.40;99.90;;;;;;5063884;28;20048;-77
2022/10/03 01:40:45;;;;;;;19.73;2.95;;;9.50;99.90;;;;;;5054767;28;20050;-77
2022/10/03 01:43:31;;;;;;;19.25;2.53;;;9.50;99.90;;;;;;5052539;28;20049;-77
2022/10/03 01:46:22;;;;;;;12.77;3.25;;;9.60;99.90;;;;;;5049599;28;20052;-79
2022/10/03 01:49:14;;;;;;;20.15;3.10;;;9.60;99.90;;;;;;5043232;28;20048;-77
2022/10/03 01:52:08;;;;;;;17.85;2.45;;;9.60;99.90;;;;;;5050587;28;20044;-76
2022/10/03 01:54:59;;;;;;;20.88;2.47;;;9.50;99.90;;;;;;5015355;28;20177;-77
2022/10/03 01:57:31;;;;;;;19.48;2.65;;;9.40;99.90;;;;;;5067372;28;20087;-77
2022/10/03 02:00:18;;;;;;;15.10;3.28;;;9.30;99.90;;;;;;5070688;28;20043;-77
2022/10/03 02:03:08;;;;;;;21.23;3.50;;;9.30;99.90;;;;;;5044171;28;20028;-77
2022/10/03 02:05:47;;;;;;;17.08;2.42;;;9.20;99.90;;;;;;5052544;28;20131;-77
2022/10/03 02:08:16;;;;;;;21.83;2.88;;;9.20;99.90;;;;;;5071353;28;20072;-79
2022/10/03 02:11:08;;;;;;;17.08;2.70;;;9.10;99.90;;;;;;5058023;28;20454;-78
2022/10/03 02:13:51;;;;;;;20.98;2.28;;;9.10;99.90;;;;;;5073278;28;20043;-77
2022/10/03 02:16:42;;;;;;;14.32;2.38;;;9.10;99.90;;;;;;5074167;28;20052;-78
2022/10/03 02:19:41;;;;;;;12.93;2.28;;;9.10;99.90;;;;;;5071098;28;20055;-77
2022/10/03 02:22:31;;;;;;;12.07;2.22;;;9.00;99.90;;;;;;5074946;28;20449;-78
2022/10/03 02:25:09;;;;;;;15.80;3.05;;;9.00;99.90;;;;;;5064916;28;20127;-77
2022/10/03 02:27:57;;;;;;;18.02;2.85;;;9.00;99.90;;;;;;5057037;28;20059;-78
2022/10/03 02:30:46;;;;;;;20.90;2.92;;;9.00;99.90;;;;;;5074210;28;20084;-81
2022/10/03 02:33:43;;;;;;;17.13;2.83;;;9.00;99.90;;;;;;5074923;28;20142;-78
2022/10/03 02:36:35;;;;;;;22.35;3.30;;;9.00;99.90;;;;;;5051433;28;20056;-77
2022/10/03 02:39:39;;;;;;;18.85;2.72;;;9.00;99.90;;;;;;5055693;28;20084;-77
2022/10/03 02:42:24;;;;;;;23.88;4.30;;;9.00;99.90;;;;;;5056466;28;20044;-77
2022/10/03 02:44:59;;;;;;;17.77;2.88;;;8.90;99.90;;;;;;5056711;28;20055;-77
2022/10/03 02:48:09;;;;;;;21.17;3.60;;;8.90;99.90;;;;;;5073170;28;20052;-78
2022/10/03 02:51:13;;;;;;;19.35;2.80;;;8.90;99.90;;;;;;5074120;28;20044;-77
2022/10/03 02:53:47;;;;;;;22.55;3.33;;;8.90;99.90;;;;;;5073394;28;20531;-77
2022/10/03 02:56:41;;;;;;;21.33;3.38;;;9.00;99.90;;;;;;5056669;28;20048;-77
2022/10/03 02:59:45;;;;;;;20.90;2.55;;;9.10;99.90;;;;;;5057044;28;20557;-77
2022/10/03 03:02:30;;;;;;;17.83;2.70;;;9.10;99.90;;;;;;5000680;28;20056;-77
2022/10/03 03:05:20;;;;;;;15.55;2.80;;;9.30;99.90;;;;;;5045510;28;20082;-77
2022/10/03 03:08:01;;;;;;;12.73;2.20;;;9.40;99.90;;;;;;5057149;28;20500;-77
2022/10/03 03:10:29;;;;;;;18.02;2.97;;;9.50;99.90;;;;;;5057277;28;20059;-80
2022/10/03 03:13:25;;;;;;;19.25;2.97;;;9.60;99.90;;;;;;5063404;28;20048;-77
2022/10/03 03:16:04;;;;;;;17.60;2.95;;;9.60;99.90;;;;;;5050807;28;20397;-77
2022/10/03 03:19:09;;;;;;;19.10;2.92;;;9.70;99.90;;;;;;5072334;28;20058;-77
2022/10/03 03:21:43;;;;;;;11.75;2.88;;;9.70;99.90;;;;;;5072579;28;20048;-77
2022/10/03 03:24:09;;;;;;;18.83;2.63;;;9.70;99.90;;;;;;5052402;28;20048;-76
2022/10/03 03:26:55;;;;;;;22.65;3.53;;;9.70;99.90;;;;;;5055033;28;20047;-77
2022/10/03 03:29:51;;;;;;;16.00;2.88;;;9.70;99.90;;;;;;5066294;28;20044;-77
2022/10/03 03:32:27;;;;;;;12.02;3.00;;;9.70;99.90;;;;;;5073284;28;20052;-78
2022/10/03 03:35:03;;;;;;;14.60;2.33;;;9.70;99.90;;;;;;5067376;28;20131;-78
2022/10/03 03:37:43;;;;;;;21.85;3.22;;;9.70;99.90;;;;;;5072163;28;20333;-77
2022/10/03 03:40:12;;;;;;;23.73;3.03;;;9.70;99.90;;;;;;5063275;28;20086;-77
2022/10/03 03:42:52;;;;;;;17.27;3.08;;;9.80;99.90;;;;;;5068712;28;20059;-77
2022/10/03 03:45:29;;;;;;;16.23;2.47;;;9.80;99.90;;;;;;5053248;28;20059;-77
2022/10/03 03:48:09;;;;;;;16.05;2.72;;;9.80;99.90;;;;;;5055722;28;20044;-78
2022/10/03 03:50:43;;;;;;;20.60;2.80;;;9.80;99.90;;;;;;5054668;28;20047;-81
2022/10/03 03:53:20;;;;;;;14.52;3.05;;;9.80;99.90;;;;;;5073102;28;20075;-78
2022/10/03 03:56:08;;;;;;;20.40;3.00;;;9.90;99.90;;;;;;5056393;28;20047;-77
2022/10/03 03:59:09;;;;;;;15.40;3.00;;;9.90;99.90;;;;;;5055935;28;20052;-81
2022/10/03 04:02:18;;;;;;;18.23;2.72;;;9.90;99.90;;;;;;5064868;28;20071;-80
2022/10/03 04:05:07;;;;;;;13.68;2.45;;;9.90;99.90;;;;;;5053648;28;20406;-77
2022/10/03 04:08:13;;;;;;;20.70;3.17;;;9.90;99.90;;;;;;5056038;28;20044;-77
2022/10/03 04:11:11;;;;;;;17.23;2.67;;;9.80;99.90;;;;;;5024902;28;20185;-76
2022/10/03 04:13:55;;;;;;;24.50;3.17;;;9.80;99.90;;;;;;5034245;28;20106;-81
2022/10/03 04:19:57;;;;;;;17.25;2.97;;;9.80;99.90;;;;;;5050954;28;20044;-77
2022/10/03 04:22:23;;;;;;;19.50;2.65;;;9.70;99.90;;;;;;5036027;28;20048;-78
2022/10/03 04:25:07;;;;;;;23.23;4.18;;;9.70;99.90;;;;;;5037444;28;20512;-78
2022/10/03 04:28:14;;;;;;;13.57;3.45;;;9.60;99.90;;;;;;5061374;28;20406;-76
2022/10/03 04:31:03;;;;;;;17.33;3.10;;;9.60;99.90;;;;;;5051937;28;20048;-81
2022/10/03 04:33:53;;;;;;;20.42;3.22;;;9.60;99.90;;;;;;5057507;28;20056;-77
2022/10/03 04:36:52;;;;;;;19.20;3.30;;;9.50;99.90;;;;;;5045247;28;20051;-78
2022/10/03 04:39:56;;;;;;;15.13;2.95;;;9.40;99.90;;;;;;5039000;28;20048;-78
2022/10/03 04:42:40;;;;;;;19.73;2.92;;;9.40;99.90;;;;;;4961610;28;20112;-80
2022/10/03 04:45:11;;;;;;;24.92;3.28;;;9.40;99.90;;;;;;4976671;28;20100;-77
2022/10/03 04:47:49;;;;;;;12.00;2.38;;;9.40;99.90;;;;;;5024110;28;20056;-81
2022/10/03 04:50:30;;;;;;;13.02;2.00;;;9.40;99.90;;;;;;5060134;28;20055;-77
2022/10/03 04:53:18;;;;;;;21.15;2.55;;;9.20;99.90;;;;;;5070875;28;20169;-77
2022/10/03 04:56:03;;;;;;;17.02;3.20;;;9.30;99.90;;;;;;5055372;28;20087;-81
2022/10/03 04:59:04;;;;;;;17.40;2.78;;;9.20;99.90;;;;;;5068941;28;20047;-77
2022/10/03 05:01:49;;;;;;;17.45;3.85;;;9.20;99.90;;;;;;5009723;28;20470;-77
2022/10/03 05:04:30;;;;;;;24.17;3.20;;;9.10;99.90;;;;;;5048465;28;20079;-80
2022/10/03 05:07:23;;;;;;;16.40;2.97;;;9.10;99.90;;;;;;5048879;28;20673;-80
2022/10/03 05:10:36;;;;;;;13.75;2.67;;;9.20;99.90;;;;;;5060752;28;20048;-77
2022/10/03 05:13:15;;;;;;;12.40;2.72;;;9.20;99.90;;;;;;5029258;28;20048;-79
2022/10/03 05:15:56;;;;;;;14.35;3.15;;;9.20;99.90;;;;;;5051639;28;20130;-78
2022/10/03 05:18:38;;;;;;;15.38;2.88;;;9.10;99.90;;;;;;5069555;28;21030;-79
2022/10/03 05:21:23;;;;;;;14.13;2.83;;;9.10;99.90;;;;;;5070571;28;20059;-78
2022/10/03 05:24:25;;;;;;;20.15;2.80;;;9.00;99.90;;;;;;5049721;28;20055;-78
2022/10/03 05:27:13;;;;;;;22.52;3.10;;;8.90;99.90;;;;;;5051039;28;20082;-78
2022/10/03 05:30:04;;;;;;;11.48;3.05;;;8.80;99.90;;;;;;5067027;28;20048;-77
2022/10/03 05:32:51;;;;;;;28.38;3.55;;;8.80;99.90;;;;;;5053397;28;20044;-78
2022/10/03 05:35:44;;;;;;;20.88;3.60;;;8.80;99.90;;;;;;5043082;28;20060;-80
2022/10/03 05:38:43;;;;;;;17.23;2.85;;;8.80;99.90;;;;;;5045198;28;20048;-77
2022/10/03 05:41:42;;;;;;;18.00;2.80;;;8.70;99.90;;;;;;5050875;28;20683;-76
2022/10/03 05:44:16;;;;;;;17.77;3.00;;;8.60;99.90;;;;;;5049887;28;20104;-76
2022/10/03 05:46:51;;;;;;;15.50;2.17;;;8.50;99.90;;;;;;5070793;28;20052;-78
2022/10/03 05:50:02;;;;;;;14.27;3.00;;;8.40;99.90;;;;;;5070749;28;20076;-77
2022/10/03 05:52:49;;;;;;;13.38;2.35;;;8.40;99.90;;;;;;5027441;28;20158;-77
2022/10/03 05:55:26;;;;;;;21.13;3.72;;;8.30;99.90;;;;;;5058483;28;20045;-77
2022/10/03 05:58:14;;;;;;;21.70;3.30;;;8.20;99.90;;;;;;5051127;28;20133;-78
2022/10/03 06:01:17;;;;;;;19.00;4.05;;;8.30;99.90;;;;;;5064853;28;20431;-77
2022/10/03 06:04:18;;;;;;;19.08;4.18;;;8.20;99.90;;;;;;5049670;28;20048;-77
2022/10/03 06:07:27;;;;;;;17.23;3.67;;;8.30;99.90;;;;;;5070366;28;20493;-77
2022/10/03 06:10:11;;;;;;;15.80;3.60;;;8.30;99.90;;;;;;5022809;28;20067;-82
2022/10/03 06:12:48;;;;;;;12.05;3.33;;;8.20;99.90;;;;;;5040326;28;20049;-78
2022/10/03 06:15:37;;;;;;;17.50;3.60;;;8.30;99.90;;;;;;5067620;28;20119;-77
2022/10/03 06:18:15;;;;;;;19.35;4.03;;;8.30;99.90;;;;;;5053154;28;20047;-78
2022/10/03 06:20:53;;;;;;;16.50;3.58;;;8.30;99.90;;;;;;5061269;28;20051;-77
2022/10/03 06:23:53;;;;;;;21.05;3.97;;;8.40;99.90;;;;;;5066978;28;20396;-77
2022/10/03 06:27:00;;;;;;;19.33;3.20;;;8.40;99.90;;;;;;5052128;28;20049;-77
2022/10/03 06:29:35;;;;;;;22.33;3.67;;;8.40;99.90;;;;;;5034952;28;20059;-77
2022/10/03 06:32:22;;;;;;;25.88;3.45;;;8.50;99.90;;;;;;5052126;28;20044;-77
2022/10/03 06:35:25;;;;;;;15.27;3.28;;;8.50;99.90;;;;;;5069230;28;20076;-77
2022/10/03 06:38:09;;;;;;;20.65;3.95;;;8.60;99.90;;;;;;5052617;28;20051;-77
2022/10/03 06:40:59;;;;;;;20.85;3.55;;;8.70;99.90;;;;;;5069953;28;20063;-77
2022/10/03 06:43:47;;;;;;;15.57;3.20;;;8.70;99.90;;;;;;5041478;28;20068;-77
2022/10/03 06:46:30;;;;;;;20.92;4.05;;;8.80;99.90;;;;;;5052758;28;20052;-78
2022/10/03 06:49:31;;;;;;;17.02;4.03;;;8.80;99.90;;;;;;5052882;28;20062;-81
2022/10/03 06:52:26;;;;;;;18.02;4.00;;;8.90;99.90;;;;;;5066170;28;20139;-82
2022/10/03 06:55:11;;;;;;;18.10;3.70;;;9.00;99.90;;;;;;5045362;28;20170;-77
2022/10/03 06:58:06;;;;;;;17.30;3.30;;;9.00;99.90;;;;;;5052788;28;20047;-79
2022/10/03 07:01:08;;;;;;;18.58;4.55;;;9.10;99.90;;;;;;5051160;28;20048;-77
2022/10/03 07:03:52;;;;;;;17.13;3.67;;;9.10;99.90;;;;;;5051433;28;20135;-78
2022/10/03 07:06:32;;;;;;;16.50;4.32;;;9.20;99.90;;;;;;5074055;28;20130;-77
2022/10/03 07:09:37;;;;;;;16.27;3.80;;;9.30;99.90;;;;;;5073213;28;20059;-80
2022/10/03 07:12:37;;;;;;;15.25;3.47;;;9.30;99.90;;;;;;5072808;28;20064;-77
2022/10/03 07:15:15;;;;;;;14.75;3.78;;;9.40;99.90;;;;;;5054993;28;20085;-77
2022/10/03 07:18:00;;;;;;;18.77;3.67;;;9.40;99.90;;;;;;5073283;28;20388;-77
2022/10/03 07:21:03;;;;;;;18.85;3.95;;;9.50;99.90;;;;;;5070015;28;20080;-77
2022/10/03 07:23:48;;;;;;;14.50;3.05;;;9.60;99.90;;;;;;5084082;28;20045;-77
2022/10/03 07:26:52;;;;;;;15.60;4.15;;;9.60;99.90;;;;;;5050979;28;20052;-78
2022/10/03 07:29:33;;;;;;;16.60;3.70;;;9.70;99.90;;;;;;5071936;28;20079;-77
2022/10/03 07:32:24;;;;;;;17.52;3.13;;;9.80;99.90;;;;;;5059628;28;20127;-77
2022/10/03 07:35:14;;;;;;;12.23;2.60;;;9.80;99.90;;;;;;5070805;28;20047;-77
2022/10/03 07:41:14;;;;;;;12.32;2.80;;;10.00;99.90;;;;;;5036814;28;20066;-77
2022/10/03 07:44:17;;;;;;;12.50;2.65;;;10.10;99.90;;;;;;5056577;28;20044;-77
2022/10/03 07:47:04;;;;;;;14.63;2.30;;;10.20;99.90;;;;;;5065993;28;20048;-77
2022/10/03 07:49:39;;;;;;;12.48;2.75;;;10.30;99.90;;;;;;5058369;28;20080;-77
2022/10/03 07:52:52;;;;;;;14.07;3.45;;;10.40;99.90;;;;;;5054873;28;20051;-80
2022/10/03 07:55:29;;;;;;;12.90;2.92;;;10.60;99.90;;;;;;5036741;28;20059;-77
2022/10/03 07:58:25;;;;;;;18.08;3.35;;;10.60;99.90;;;;;;5041215;28;20486;-77
2022/10/03 08:00:56;;;;;;;15.02;2.75;;;10.70;99.90;;;;;;5058764;28;20051;-77
2022/10/03 08:03:56;;;;;;;14.15;3.28;;;10.90;99.90;;;;;;5042999;28;20082;-77
2022/10/03 08:06:33;;;;;;;11.73;2.55;;;11.10;99.90;;;;;;5063281;28;20140;-78
2022/10/03 08:09:17;;;;;;;12.95;2.42;;;11.20;99.90;;;;;;5070675;28;20063;-77
2022/10/03 08:12:13;;;;;;;9.38;2.10;;;11.40;99.90;;;;;;5072340;28;20054;-77
2022/10/03 08:15:09;;;;;;;13.02;2.60;;;11.60;99.90;;;;;;5072441;28;20189;-77
2022/10/03 08:17:50;;;;;;;12.15;2.05;;;11.70;99.90;;;;;;5047357;28;20101;-77
2022/10/03 08:20:31;;;;;;;9.75;1.88;;;11.80;99.90;;;;;;5071869;28;20040;-78
2022/10/03 08:23:12;;;;;;;9.70;1.40;;;11.90;99.90;;;;;;5055487;28;20051;-77
2022/10/03 08:26:06;;;;;;;4.82;1.10;;;12.00;99.90;;;;;;5056353;28;20059;-78
2022/10/03 08:29:22;;;;;;;9.50;1.67;;;12.10;99.90;;;;;;5041510;28;20575;-77
2022/10/03 08:31:54;;;;;;;11.32;1.58;;;12.30;99.90;;;;;;5010039;28;20048;-78
2022/10/03 08:34:55;;;;;;;9.57;1.20;;;12.40;99.90;;;;;;5069079;28;20059;-77
2022/10/03 08:37:52;;;;;;;16.05;1.58;;;12.50;99.90;;;;;;5066332;28;20048;-77
2022/10/03 08:40:55;;;;;;;10.48;1.33;;;12.60;99.90;;;;;;5061132;28;20398;-77
2022/10/03 08:43:51;;;;;;;8.73;1.48;;;12.70;99.90;;;;;;5062749;28;20051;-77
2022/10/03 08:46:46;;;;;;;8.80;1.48;;;12.80;99.90;;;;;;5039605;28;20516;-80
2022/10/03 08:49:31;;;;;;;11.85;1.35;;;13.00;99.90;;;;;;5040499;28;20085;-81
2022/10/03 08:52:06;;;;;;;9.32;1.40;;;13.20;99.90;;;;;;5050801;28;20506;-78
2022/10/03 08:55:10;;;;;;;8.93;1.73;;;13.30;99.90;;;;;;5051258;28;20615;-77
2022/10/03 08:57:59;;;;;;;13.50;1.65;;;13.40;99.90;;;;;;5053551;28;20051;-79
2022/10/03 09:00:51;;;;;;;14.45;1.95;;;13.60;99.90;;;;;;5071074;28;20054;-77
2022/10/03 09:03:51;;;;;;;8.13;1.17;;;13.70;99.90;;;;;;5054899;28;20048;-77
2022/10/03 09:06:54;;;;;;;9.25;1.42;;;13.90;99.90;;;;;;5071312;28;20051;-78
2022/10/03 09:09:40;;;;;;;10.55;1.17;;;14.10;99.90;;;;;;5071457;28;20105;-77
2022/10/03 09:12:20;;;;;;;9.85;1.67;;;14.20;99.90;;;;;;5071431;28;20052;-77
2022/10/03 09:15:21;;;;;;;6.82;1.10;;;14.30;99.90;;;;;;5054614;28;20079;-77
2022/10/03 09:18:05;;;;;;;10.38;1.60;;;14.30;99.90;;;;;;4972002;28;20149;-77
2022/10/03 09:21:19;;;;;;;9.75;1.70;;;14.50;99.90;;;;;;5066331;28;20048;-76
2022/10/03 09:24:13;;;;;;;7.72;1.45;;;14.40;99.90;;;;;;5059396;28;20042;-77
2022/10/03 09:27:08;;;;;;;7.60;1.55;;;14.60;99.90;;;;;;5052222;28;20056;-77
2022/10/03 09:30:03;;;;;;;7.50;1.25;;;14.80;99.90;;;;;;5040988;28;20106;-78
2022/10/03 09:32:59;;;;;;;7.25;1.40;;;14.90;99.90;;;;;;5053103;28;20085;-77
2022/10/03 09:35:44;;;;;;;8.50;2.03;;;14.90;99.90;;;;;;5045619;28;20052;-77
2022/10/03 09:38:32;;;;;;;6.18;1.20;;;15.00;99.90;;;;;;5070660;28;20052;-77
2022/10/03 09:41:19;;;;;;;9.10;1.83;;;15.20;99.90;;;;;;5060992;28;20488;-78
2022/10/03 09:44:28;;;;;;;8.13;1.13;;;15.30;99.90;;;;;;5069285;28;20048;-77
2022/10/03 09:47:21;;;;;;;7.25;1.38;;;15.60;84.90;;;;;;5063729;28;20040;-79
2022/10/03 09:49:49;;;;;;;6.32;1.40;;;15.80;1.00;;;;;;5057861;28;20049;-78
2022/10/03 09:52:31;;;;;;;9.25;1.40;;;16.00;46.50;;;;;;5068936;28;20124;-77
2022/10/03 09:55:00;;;;;;;6.50;1.48;;;16.20;1.00;;;;;;5061688;28;20129;-78
2022/10/03 09:57:47;;;;;;;6.60;1.33;;;16.40;1.00;;;;;;5034258;28;20490;-77
2022/10/03 10:00:15;;;;;;;6.97;1.27;;;16.50;1.00;;;;;;5048423;28;20043;-77
2022/10/03 10:03:07;;;;;;;7.38;1.38;;;16.70;1.00;;;;;;5054117;28;20615;-77
2022/10/03 10:06:10;;;;;;;4.78;0.82;;;16.70;1.00;;;;;;5011853;28;20413;-78
2022/10/03 10:08:36;;;;;;;8.00;1.30;;;16.90;99.90;;;;;;5051068;28;20401;-78
2022/10/03 10:11:13;;;;;;;2.75;1.00;;;17.00;1.00;;;;;;5062546;28;20098;-77
2022/10/03 10:13:59;;;;;;;4.20;0.65;;;17.10;1.00;;;;;;5077331;28;20044;-77
2022/10/03 10:16:37;;;;;;;8.30;0.82;;;17.20;99.90;;;;;;5067202;28;20596;-80
2022/10/03 10:19:31;;;;;;;7.18;1.40;;;17.30;99.90;;;;;;5071220;28;20044;-77
2022/10/03 10:22:31;;;;;;;4.70;0.90;;;17.30;99.90;;;;;;5054022;28;20603;-77
2022/10/03 10:25:17;;;;;;;7.95;0.98;;;17.40;99.90;;;;;;5054217;28;20645;-78
2022/10/03 10:28:03;;;;;;;8.47;1.10;;;17.50;99.90;;;;;;5053862;28;20059;-78
2022/10/03 10:31:03;;;;;;;6.85;1.42;;;17.70;1.00;;;;;;5070998;28;20047;-76
2022/10/03 10:34:18;;;;;;;5.88;1.10;;;17.80;99.90;;;;;;5053093;28;20536;-76
2022/10/03 10:37:41;;;;;;;6.38;1.02;;;17.80;92.20;;;;;;5046300;28;20865;-77
2022/10/03 10:40:36;;;;;;;7.68;1.48;;;17.90;78.00;;;;;;5040921;28;20064;-77
2022/10/03 10:43:23;;;;;;;4.65;1.38;;;17.90;76.10;;;;;;5055512;28;20047;-77
2022/10/03 10:46:05;;;;;;;5.68;1.02;;;17.90;99.90;;;;;;5041990;28;20066;-77
2022/10/03 10:49:06;;;;;;;10.13;1.40;;;18.00;1.00;;;;;;5063219;28;20052;-77
2022/10/03 10:51:49;;;;;;;4.03;1.10;;;18.00;1.00;;;;;;5051976;28;20139;-77
2022/10/03 10:54:49;;;;;;;8.73;1.35;;;18.10;1.00;;;;;;5070526;28;20084;-77
2022/10/03 10:57:36;;;;;;;4.60;0.85;;;18.20;99.90;;;;;;5038361;28;20044;-77
2022/10/03 11:00:29;;;;;;;5.53;0.85;;;18.30;99.90;;;;;;5038183;28;20048;-76
2022/10/03 11:03:23;;;;;;;7.15;1.02;;;18.40;99.90;;;;;;5043632;28;20047;-76
2022/10/03 11:06:16;;;;;;;6.43;1.15;;;18.40;99.90;;;;;;5073675;28;20121;-77
2022/10/03 11:09:07;;;;;;;6.32;0.80;;;18.50;99.90;;;;;;5056802;28;20044;-76
2022/10/03 11:12:11;;;;;;;5.30;1.00;;;18.50;99.90;;;;;;5054329;28;20118;-77
2022/10/03 11:15:13;;;;;;;8.15;1.00;;;18.60;99.90;;;;;;5073193;28;20493;-77
2022/10/03 11:18:10;;;;;;;4.15;0.88;;;18.70;7.60;;;;;;5053852;28;20044;-76
2022/10/03 11:21:00;;;;;;;6.25;0.90;;;18.60;1.00;;;;;;5045911;28;20048;-77
2022/10/03 11:24:19;;;;;;;6.82;1.10;;;18.70;1.00;;;;;;5055009;28;20447;-77
2022/10/03 11:27:26;;;;;;;5.07;0.80;;;18.90;1.00;;;;;;5028663;28;20053;-76
2022/10/03 11:30:18;;;;;;;4.82;0.90;;;19.20;1.00;;;;;;4987894;28;20042;-76
2022/10/03 11:32:53;;;;;;;4.97;1.02;;;19.50;1.00;;;;;;4988613;28;20060;-77
2022/10/03 11:35:53;;;;;;;6.03;0.98;;;19.60;1.00;;;;;;5035557;28;20512;-77
2022/10/03 11:38:31;;;;;;;3.58;0.90;;;19.80;1.00;;;;;;5073933;28;20119;-77
2022/10/03 11:41:18;;;;;;;4.68;1.08;;;19.90;1.00;;;;;;5073007;28;20096;-77
2022/10/03 11:44:00;;;;;;;4.55;0.82;;;20.10;1.00;;;;;;5071821;28;20052;-77
2022/10/03 11:46:57;;;;;;;5.47;1.20;;;20.10;1.00;;;;;;5073869;28;20090;-77
2022/10/03 11:50:00;;;;;;;5.60;0.88;;;20.00;1.00;;;;;;5061362;28;20055;-77
2022/10/03 11:52:51;;;;;;;6.70;1.35;;;20.20;1.00;;;;;;5038918;28;20529;-76
2022/10/03 11:55:17;;;;;;;3.00;0.90;;;20.60;1.00;;;;;;5073388;28;20564;-78
2022/10/03 11:57:52;;;;;;;6.35;0.90;;;20.80;1.00;;;;;;5072594;28;20051;-79
2022/10/03 12:00:22;;;;;;;8.52;1.30;;;21.00;1.00;;;;;;5059751;28;20529;-78
2022/10/03 12:03:19;;;;;;;5.72;0.88;;;21.10;1.00;;;;;;5072702;28;20054;-77
2022/10/03 12:05:44;;;;;;;;;;;21.20;1.00;;;;;;5076788;28;20036;-76
2022/10/03 12:11:29;;;;;;;5.60;1.02;;;21.50;1.00;;;;;;5053070;28;20432;-77
2022/10/03 12:14:10;;;;;;;6.57;1.27;;;22.00;1.00;;;;;;5089924;28;20040;-77
2022/10/03 12:16:52;;;;;;;5.13;0.90;;;22.30;1.00;;;;;;5072888;28;20115;-77
2022/10/03 12:19:29;;;;;;;5.85;1.00;;;22.80;1.00;;;;;;5072936;28;20055;-77
2022/10/03 12:22:17;;;;;;;5.72;0.90;;;22.90;1.00;;;;;;5071746;28;20123;-77
2022/10/03 12:24:45;;;;;;;6.38;1.42;;;23.10;1.00;;;;;;5055367;28;20060;-77
2022/10/03 12:27:37;;;;;;;5.25;1.10;;;23.50;1.00;;;;;;5072492;28;20130;-77
2022/10/03 12:30:13;;;;;;;6.20;0.80;;;23.50;1.00;;;;;;5072157;28;20143;-77
2022/10/03 12:32:57;;;;;;;6.28;0.93;;;23.70;1.00;;;;;;5058362;28;20079;-77
2022/10/03 12:35:37;;;;;;;3.78;0.80;;;23.90;1.00;;;;;;5062930;28;20143;-77
2022/10/03 12:38:18;;;;;;;6.97;0.90;;;24.00;1.00;;;;;;5058615;28;20449;-77
2022/10/03 12:41:10;;;;;;;8.57;1.10;;;23.70;1.00;;;;;;5058872;28;20686;-77
2022/10/03 12:43:52;;;;;;;6.65;0.90;;;23.50;1.00;;;;;;5072743;28;20052;-78
2022/10/03 12:46:42;;;;;;;4.57;1.17;;;23.70;1.00;;;;;;5053516;28;20131;-77
2022/10/03 12:49:30;;;;;;;4.72;1.15;;;23.90;1.00;;;;;;5056199;28;20078;-77
2022/10/03 12:52:03;;;;;;;4.50;0.80;;;23.90;1.00;;;;;;5056716;28;20052;-77
2022/10/03 12:54:57;;;;;;;7.95;1.35;;;23.90;1.00;;;;;;5052407;28;20091;-77
2022/10/03 12:57:47;;;;;;;5.03;0.85;;;24.10;1.00;;;;;;5052583;28;20040;-78
2022/10/03 13:00:19;;;;;;;4.10;0.90;;;24.50;1.00;;;;;;5062634;28;20137;-77
2022/10/03 13:03:05;;;;;;;7.07;0.95;;;24.50;1.00;;;;;;5071459;28;20124;-80
2022/10/03 13:05:54;;;;;;;3.72;0.85;;;24.30;1.00;;;;;;5055078;28;20052;-77
2022/10/03 13:08:37;;;;;;;5.18;0.70;;;23.40;1.00;;;;;;5069965;28;20047;-77
2022/10/03 13:11:35;;;;;;;3.25;0.93;;;22.80;1.00;;;;;;5071868;28;20075;-77
2022/10/03 13:14:27;;;;;;;6.32;1.20;;;22.10;1.00;;;;;;5054973;28;20040;-77
2022/10/03 13:17:03;;;;;;;4.18;1.10;;;21.60;1.00;;;;;;5052767;28;20050;-79
2022/10/03 13:19:50;;;;;;;5.47;0.70;;;21.30;1.00;;;;;;5072057;28;20048;-78
2022/10/03 13:22:24;;;;;;;6.53;0.93;;;21.00;1.00;;;;;;5051929;28;20102;-77
2022/10/03 13:25:17;;;;;;;5.05;1.27;;;20.80;1.00;;;;;;5050580;28;20040;-77
2022/10/03 13:28:00;;;;;;;4.35;0.75;;;21.20;1.00;;;;;;5070943;28;20105;-77
2022/10/03 13:30:46;;;;;;;6.10;0.98;;;21.80;1.00;;;;;;5072086;28;20087;-77
2022/10/03 13:33:28;;;;;;;3.00;0.95;;;22.10;1.00;;;;;;5053731;28;20044;-77
2022/10/03 13:36:16;;;;;;;5.28;0.80;;;22.00;1.00;;;;;;5070279;28;20105;-77
2022/10/03 13:39:11;;;;;;;6.93;1.33;;;21.60;1.00;;;;;;5070980;28;20047;-78
2022/10/03 13:42:09;;;;;;;5.78;1.35;;;21.20;1.00;;;;;;5071254;28;20047;-77
2022/10/03 13:44:55;;;;;;;4.65;1.20;;;20.70;1.00;;;;;;5070970;28;20048;-77
2022/10/03 13:47:53;;;;;;;4.95;0.90;;;20.60;1.00;;;;;;5051289;28;20551;-77
2022/10/03 13:50:30;;;;;;;5.57;1.20;;;20.50;1.00;;;;;;5071196;28;20048;-77
2022/10/03 13:53:42;;;;;;;7.07;1.58;;;20.40;1.00;;;;;;5064546;28;20070;-76
2022/10/03 13:56:21;;;;;;;6.32;1.80;;;20.10;1.00;;;;;;5055789;28;20056;-78
2022/10/03 13:59:02;;;;;;;5.70;0.90;;;19.80;1.00;;;;;;5071265;28;20097;-77
2022/10/03 14:02:04;;;;;;;6.55;1.30;;;19.60;1.00;;;;;;5071275;28;20135;-77
2022/10/03 14:04:50;;;;;;;8.05;0.95;;;19.40;1.00;;;;;;5015618;28;20053;-77
2022/10/03 14:07:41;;;;;;;6.10;0.80;;;19.20;1.00;;;;;;5053084;28;20070;-77
2022/10/03 14:10:21;;;;;;;8.05;1.63;;;19.10;1.00;;;;;;5074831;28;20051;-77
2022/10/03 14:13:11;;;;;;;4.25;1.00;;;19.10;1.00;;;;;;5074764;28;20123;-77
2022/10/03 14:16:14;;;;;;;3.22;0.75;;;19.00;1.00;;;;;;5062593;28;20063;-79
2022/10/03 14:19:10;;;;;;;6.50;1.13;;;19.10;1.00;;;;;;5056610;28;20048;-77
2022/10/03 14:22:07;;;;;;;6.05;1.10;;;19.00;1.00;;;;;;5073447;28;20680;-77
2022/10/03 14:24:56;;;;;;;6.18;1.40;;;19.00;1.00;;;;;;5057950;28;20124;-77
2022/10/03 14:27:44;;;;;;;8.23;1.25;;;19.00;1.00;;;;;;5071252;28;20049;-76
2022/10/03 14:30:16;;;;;;;4.60;1.02;;;19.10;1.00;;;;;;5059347;28;20052;-77
2022/10/03 14:32:57;;;;;;;3.40;1.02;;;19.10;1.00;;;;;;5057858;28;20052;-78
2022/10/03 14:35:36;;;;;;;4.03;1.00;;;19.20;1.00;;;;;;5051393;28;20056;-77
2022/10/03 14:38:57;;;;;;;5.15;1.15;;;19.10;1.00;;;;;;5051276;28;20052;-78
2022/10/03 14:41:31;;;;;;;5.35;1.10;;;18.90;1.00;;;;;;5051206;28;20056;-77
2022/10/03 14:44:11;;;;;;;10.07;1.95;;;18.70;1.00;;;;;;5049983;28;20046;-82
2022/10/03 14:46:54;;;;;;;4.68;1.27;;;18.60;1.00;;;;;;5034963;28;20446;-78
2022/10/03 14:49:34;;;;;;;8.48;1.60;;;18.50;1.00;;;;;;5046317;28;20050;-77
2022/10/03 14:52:29;;;;;;;7.32;1.30;;;18.40;1.00;;;;;;5027483;28;20041;-76